createdAt,value
2022-09-09T00:01:12.038Z,98716.50
2022-09-09T00:06:26.670Z,98722.28
2022-09-09T00:11:38.905Z,98731.31
2022-09-09T00:16:49.449Z,98725.34
2022-09-09T00:22:10.042Z,98713.38
2022-09-09T00:27:30.994Z,98717.75
2022-09-09T00:32:36.707Z,98716.16
2022-09-09T00:37:41.219Z,98703.72
2022-09-09T00:42:45.731Z,98711.06
2022-09-09T00:47:52.171Z,98706.97
2022-09-09T00:53:08.059Z,98715.34
2022-09-09T00:58:11.728Z,98718.91
2022-09-09T01:03:28.766Z,98723.22
2022-09-09T01:09:10.115Z,98718.91
2022-09-09T01:14:22.615Z,98722.63
2022-09-09T01:19:40.345Z,98724.97
2022-09-09T01:24:53.407Z,98721.00
2022-09-09T01:30:20.320Z,98726.75
2022-09-09T01:35:33.866Z,98722.38
2022-09-09T01:40:39.403Z,98706.75
2022-09-09T01:45:45.584Z,98708.88
2022-09-09T01:50:48.623Z,98705.56
2022-09-09T01:56:04.680Z,98698.31
2022-09-09T02:01:25.484Z,98697.94
2022-09-09T02:06:35.990Z,98689.19
2022-09-09T02:12:01.053Z,98704.31
2022-09-09T02:17:21.149Z,98700.97
2022-09-09T02:22:36.274Z,98705.56
2022-09-09T02:27:40.133Z,98710.63
2022-09-09T02:32:47.457Z,98714.59
2022-09-09T02:37:55.820Z,98711.31
2022-09-09T02:43:01.067Z,98711.88
2022-09-09T02:48:16.258Z,98701.31
2022-09-09T02:53:26.098Z,98713.59
2022-09-09T02:58:29.607Z,98707.53
2022-09-09T03:03:42.542Z,98712.56
2022-09-09T03:08:50.255Z,98714.00
2022-09-09T03:13:58.867Z,98716.16
2022-09-09T03:19:05.183Z,98716.47
2022-09-09T03:24:08.749Z,98718.69
2022-09-09T03:29:13.288Z,98708.63
2022-09-09T03:34:18.799Z,98712.09
2022-09-09T03:39:22.302Z,98708.09
2022-09-09T03:44:25.663Z,98704.09
2022-09-09T03:49:30.343Z,98712.47
2022-09-09T03:54:33.366Z,98714.66
2022-09-09T03:59:37.073Z,98707.41
2022-09-09T04:04:41.758Z,98706.81
2022-09-09T04:09:44.925Z,98707.94
2022-09-09T04:14:48.088Z,98708.28
2022-09-09T04:19:53.616Z,98723.34
2022-09-09T04:24:57.277Z,98726.13
2022-09-09T04:30:00.419Z,98722.38
2022-09-09T04:35:08.713Z,98720.47
2022-09-09T04:40:12.015Z,98726.72
2022-09-09T04:45:16.031Z,98723.13
2022-09-09T04:50:20.749Z,98720.44
2022-09-09T04:55:24.189Z,98725.75
2022-09-09T05:00:27.346Z,98719.34
2022-09-09T05:05:35.192Z,98731.00
2022-09-09T05:10:40.212Z,98725.25
2022-09-09T05:15:44.227Z,98726.84
2022-09-09T05:20:48.625Z,98734.25
2022-09-09T05:26:00.885Z,98727.38
2022-09-09T05:31:09.207Z,98739.72
2022-09-09T05:36:16.171Z,98749.53
2022-09-09T05:41:20.995Z,98744.16
2022-09-09T05:46:26.479Z,98752.09
2022-09-09T05:51:32.456Z,98762.41
2022-09-09T05:56:40.311Z,98759.75
2022-09-09T06:01:46.387Z,98767.16
2022-09-09T06:06:58.654Z,98762.78
2022-09-09T06:12:01.720Z,98763.09
2022-09-09T06:17:08.671Z,98762.56
2022-09-09T06:22:14.336Z,98768.38
2022-09-09T06:27:18.579Z,98762.03
2022-09-09T06:32:21.929Z,98765.47
2022-09-09T06:37:28.789Z,98761.75
2022-09-09T06:42:32.790Z,98773.16
2022-09-09T06:47:46.619Z,98761.59
2022-09-09T06:52:52.696Z,98763.22
2022-09-09T06:57:55.863Z,98760.09
2022-09-09T07:03:00.062Z,98756.41
2022-09-09T07:08:05.649Z,98752.81
2022-09-09T07:13:09.204Z,98749.25
2022-09-09T07:18:12.749Z,98757.47
2022-09-09T07:23:17.762Z,98753.75
2022-09-09T07:28:21.133Z,98752.53
2022-09-09T07:33:24.160Z,98753.63
2022-09-09T07:38:28.747Z,98753.53
2022-09-09T07:43:31.723Z,98758.38
2022-09-09T07:48:35.078Z,98758.94
2022-09-09T07:53:40.997Z,98765.78
2022-09-09T07:58:44.876Z,98780.50
2022-09-09T08:03:51.740Z,98780.84
2022-09-09T08:08:59.008Z,98788.06
2022-09-09T08:14:02.639Z,98790.50
2022-09-09T08:19:08.426Z,98782.72
2022-09-09T08:24:16.052Z,98788.31
2022-09-09T08:29:22.893Z,98790.22
2022-09-09T08:34:28.141Z,98789.03
2022-09-09T08:39:35.044Z,98792.47
2022-09-09T08:45:04.497Z,98793.97
2022-09-09T08:50:20.820Z,98797.94
2022-09-09T08:55:30.924Z,98806.03
2022-09-09T09:00:42.609Z,98801.97
2022-09-09T09:05:49.895Z,98805.88
2022-09-09T09:10:59.287Z,98811.75
2022-09-09T09:16:16.092Z,98819.69
2022-09-09T09:21:36.461Z,98836.41
2022-09-09T09:26:40.980Z,98824.53
2022-09-09T09:31:49.001Z,98815.69
2022-09-09T09:36:56.055Z,98817.59
2022-09-09T09:42:11.800Z,98819.78
2022-09-09T09:47:16.738Z,98813.69
2022-09-09T09:52:27.658Z,98808.44
2022-09-09T09:57:34.035Z,98817.03
2022-09-09T10:02:44.225Z,98801.91
2022-09-09T10:08:04.210Z,98811.13
2022-09-09T10:13:18.715Z,98798.44
2022-09-09T10:18:42.061Z,98793.78
2022-09-09T10:24:01.084Z,98786.66
2022-09-09T10:29:28.777Z,98786.41
2022-09-09T10:34:53.253Z,98779.75
2022-09-09T10:40:09.058Z,98779.13
2022-09-09T10:45:21.272Z,98759.97
2022-09-09T10:56:08.671Z,98741.75
2022-09-09T11:01:20.813Z,98737.97
2022-09-09T11:06:30.771Z,98748.53
2022-09-09T11:11:41.943Z,98751.13
2022-09-09T11:16:52.687Z,98762.44
2022-09-09T11:21:58.999Z,98761.72
2022-09-09T11:27:10.350Z,98750.66
2022-09-09T11:32:35.253Z,98743.91
2022-09-09T11:38:07.465Z,98744.34
2022-09-09T11:43:14.513Z,98738.44
2022-09-09T11:48:30.658Z,98738.09
2022-09-09T11:53:34.256Z,98751.91
2022-09-09T11:58:43.806Z,98726.53
2022-09-09T12:03:50.925Z,98728.22
2022-09-09T12:08:59.309Z,98723.13
2022-09-09T12:14:02.893Z,98714.19
2022-09-09T12:19:16.581Z,98707.84
2022-09-09T12:24:26.054Z,98715.69
2022-09-09T12:29:39.307Z,98715.00
2022-09-09T12:34:46.698Z,98719.88
2022-09-09T12:39:54.061Z,98709.44
2022-09-09T12:44:59.251Z,98703.22
2022-09-09T12:50:03.912Z,98695.88
2022-09-09T12:55:09.456Z,98697.31
2022-09-09T13:00:17.697Z,98686.44
2022-09-09T13:05:25.151Z,98679.78
2022-09-09T13:10:37.003Z,98678.38
2022-09-09T13:15:52.900Z,98663.38
2022-09-09T13:20:58.972Z,98658.09
2022-09-09T13:26:05.066Z,98664.50
2022-09-09T13:31:23.735Z,98671.28
2022-09-09T13:36:32.997Z,98652.81
2022-09-09T13:41:37.606Z,98662.31
2022-09-09T13:46:42.234Z,98669.53
2022-09-09T13:51:48.989Z,98683.44
2022-09-09T13:56:52.274Z,98672.91
2022-09-09T14:01:55.373Z,98674.06
2022-09-09T14:07:00.543Z,98673.34
2022-09-09T14:12:03.848Z,98673.88
2022-09-09T14:17:08.263Z,98667.25
2022-09-09T14:22:12.753Z,98661.13
2022-09-09T14:27:15.993Z,98648.09
2022-09-09T14:32:18.938Z,98659.94
2022-09-09T14:37:23.214Z,98655.22
2022-09-09T14:42:26.972Z,98646.53
2022-09-09T14:47:30.255Z,98644.03
2022-09-09T14:52:34.941Z,98642.59
2022-09-09T14:57:37.900Z,98645.53
2022-09-09T15:02:41.031Z,98657.94
2022-09-09T15:07:45.481Z,98655.91
2022-09-09T15:12:48.424Z,98642.09
2022-09-09T15:17:51.321Z,98641.00
2022-09-09T15:22:55.893Z,98644.22
2022-09-09T15:27:59.383Z,98642.91
2022-09-09T15:33:02.301Z,98654.31
2022-09-09T15:38:06.774Z,98653.41
2022-09-09T15:43:11.647Z,98658.09
2022-09-09T15:48:14.573Z,98648.69
2022-09-09T15:53:19.148Z,98635.47
2022-09-09T15:58:22.132Z,98646.19
2022-09-09T16:03:25.036Z,98645.91
2022-09-09T16:08:34.025Z,98657.13
2022-09-09T16:13:37.791Z,98650.22
2022-09-09T16:18:42.540Z,98654.06
2022-09-09T16:23:46.883Z,98651.88
2022-09-09T16:28:50.173Z,98654.44
2022-09-09T16:33:53.724Z,98662.50
2022-09-09T16:38:59.949Z,98660.44
2022-09-09T16:44:05.283Z,98667.50
2022-09-09T16:49:11.104Z,98670.03
2022-09-09T16:54:17.143Z,98676.13
2022-09-09T16:59:22.259Z,98688.34
2022-09-09T17:04:28.939Z,98691.50
2022-09-09T17:09:33.394Z,98684.59
2022-09-09T17:14:36.560Z,98698.34
2022-09-09T17:19:39.512Z,98688.66
2022-09-09T17:24:44.090Z,98692.94
2022-09-09T17:29:47.930Z,98695.31
2022-09-09T17:34:50.918Z,98703.50
2022-09-09T17:39:55.324Z,98710.50
2022-09-09T17:44:58.298Z,98707.19
2022-09-09T17:50:01.247Z,98704.91
2022-09-09T17:55:06.238Z,98731.22
2022-09-09T18:00:11.442Z,98727.03
2022-09-09T18:05:17.285Z,98733.25
2022-09-09T18:10:21.587Z,98748.44
2022-09-09T18:15:48.033Z,98747.84
2022-09-09T18:20:47.760Z,98758.53
2022-09-09T18:25:52.154Z,98741.59
2022-09-09T18:30:55.661Z,98742.78
2022-09-09T18:35:59.029Z,98758.91
2022-09-09T18:41:14.546Z,98752.47
2022-09-09T18:46:18.879Z,98759.22
2022-09-09T18:51:25.830Z,98765.28
2022-09-09T18:56:30.558Z,98766.84
2022-09-09T19:01:35.670Z,98777.72
2022-09-09T19:06:42.012Z,98766.94
2022-09-09T19:11:46.744Z,98763.81
2022-09-09T19:16:49.943Z,98769.16
2022-09-09T19:21:57.531Z,98768.09
2022-09-09T19:27:06.810Z,98774.16
2022-09-09T19:37:34.139Z,98778.50
2022-09-09T19:42:38.473Z,98789.91
2022-09-09T19:47:42.866Z,98783.81
2022-09-09T19:52:45.820Z,98781.19
2022-09-09T19:57:50.105Z,98787.31
2022-09-09T20:03:15.177Z,98780.22
2022-09-09T20:08:16.055Z,98786.34
2022-09-09T20:13:20.968Z,98790.06
2022-09-09T20:18:24.020Z,98792.19
2022-09-09T20:23:27.560Z,98790.13
2022-09-09T20:28:32.038Z,98800.22
2022-09-09T20:33:35.847Z,98802.06
2022-09-09T20:38:42.726Z,98812.66
2022-09-09T20:43:52.136Z,98810.81
2022-09-09T20:49:00.872Z,98810.81
2022-09-09T20:54:08.637Z,98814.00
2022-09-09T20:59:15.084Z,98824.63
2022-09-09T21:04:20.452Z,98818.25
2022-09-09T21:09:24.586Z,98827.53
2022-09-09T21:14:28.980Z,98816.13
2022-09-09T21:19:31.911Z,98824.09
2022-09-09T21:24:34.964Z,98828.34
2022-09-09T21:29:39.243Z,98821.47
2022-09-09T21:34:42.820Z,98829.41
2022-09-09T21:39:47.749Z,98834.97
2022-09-09T21:44:52.135Z,98833.63
2022-09-09T21:49:55.026Z,98818.78
2022-09-09T21:54:57.991Z,98809.47
2022-09-09T22:00:02.323Z,98822.47
2022-09-09T22:05:25.308Z,98813.19
2022-09-09T22:10:28.194Z,98812.66
2022-09-09T22:15:32.810Z,98816.06
2022-09-09T22:20:41.807Z,98812.31
2022-09-09T22:25:44.800Z,98805.91
2022-09-09T22:30:49.143Z,98805.91
2022-09-09T22:35:52.144Z,98802.72
2022-09-09T22:40:55.174Z,98797.38
2022-09-09T22:45:59.595Z,98793.69
2022-09-09T22:51:04.457Z,98773.50
2022-09-09T22:56:09.254Z,98785.16
2022-09-09T23:01:17.365Z,98783.53
2022-09-09T23:06:22.974Z,98782.97
2022-09-09T23:11:27.963Z,98771.75
2022-09-09T23:16:34.407Z,98771.72
2022-09-09T23:21:38.725Z,98773.97
2022-09-09T23:26:43.463Z,98777.16
2022-09-09T23:31:47.827Z,98772.41
2022-09-09T23:36:50.751Z,98766.06
2022-09-09T23:41:53.725Z,98776.06
2022-09-09T23:46:57.995Z,98778.69
2022-09-09T23:52:03.557Z,98780.56
2022-09-09T23:57:06.567Z,98785.34
